Time;durP1;ratioP1;P1;durP2;ratioP2;P2;SDS_P1;SDS_P2;PMS_P1;PMS_P2;Temp;Humidity;BMP_temperature;BMP_pressure;BME280_temperature;BME280_humidity;BME280_pressure;Samples;Min_cycle;Max_cycle;Signal;HPM_P1;HPM_P2
2022/08/07 00:02:47;;;;;;;6.28;2.30;;;15.30;99.90;;;;;;12405136;28;20109;-84
2022/08/07 00:08:48;;;;;;;3.67;2.15;;;15.30;99.90;;;;;;12375403;28;20103;-83
2022/08/07 00:14:53;;;;;;;5.78;2.40;;;15.30;99.90;;;;;;12378933;28;20057;-83
2022/08/07 00:21:02;;;;;;;5.03;2.28;;;15.20;99.90;;;;;;12375975;28;20119;-84
2022/08/07 00:27:24;;;;;;;5.95;3.20;;;15.00;99.90;;;;;;12376257;28;20053;-84
2022/08/07 00:33:37;;;;;;;4.28;3.00;;;15.10;99.90;;;;;;12387119;28;20137;-84
2022/08/07 00:39:41;;;;;;;4.63;3.40;;;15.10;99.90;;;;;;12377492;28;20065;-84
2022/08/07 00:45:47;;;;;;;6.18;3.65;;;14.90;99.90;;;;;;12365270;28;20058;-84
2022/08/07 00:51:51;;;;;;;6.10;3.50;;;15.00;99.90;;;;;;12365373;28;20050;-83
2022/08/07 00:57:59;;;;;;;6.72;3.90;;;15.00;99.90;;;;;;12376726;28;20061;-83
2022/08/07 01:04:07;;;;;;;4.43;3.03;;;15.00;99.90;;;;;;12393024;28;20096;-84
2022/08/07 01:10:09;;;;;;;5.75;3.15;;;15.00;99.90;;;;;;12403352;28;20454;-83
2022/08/07 01:16:13;;;;;;;5.13;3.55;;;15.00;99.90;;;;;;12375403;28;20054;-83
2022/08/07 01:22:31;;;;;;;7.38;3.88;;;15.00;99.90;;;;;;12386494;28;20065;-83
2022/08/07 01:28:33;;;;;;;6.32;3.55;;;15.00;99.90;;;;;;12374573;28;20490;-83
2022/08/07 01:34:36;;;;;;;7.60;4.05;;;14.90;99.90;;;;;;12373797;28;20050;-83
2022/08/07 01:40:39;;;;;;;5.75;3.80;;;14.80;99.90;;;;;;12377573;28;20417;-83
2022/08/07 01:46:41;;;;;;;5.82;3.72;;;14.70;99.90;;;;;;12383090;28;20456;-83
2022/08/07 01:52:47;;;;;;;4.80;3.47;;;14.70;99.90;;;;;;12374884;28;20509;-82
2022/08/07 01:59:16;;;;;;;6.60;4.18;;;14.60;99.90;;;;;;12383754;28;20054;-84
2022/08/07 02:05:32;;;;;;;5.55;3.50;;;14.50;99.90;;;;;;12390002;28;20138;-83
2022/08/07 02:11:56;;;;;;;5.32;3.55;;;14.50;99.90;;;;;;12380968;28;20051;-82
2022/08/07 02:18:11;;;;;;;5.50;3.70;;;14.50;99.90;;;;;;12373907;28;20055;-83
2022/08/07 02:24:14;;;;;;;7.57;3.30;;;14.30;99.90;;;;;;12376628;28;20082;-83
2022/08/07 02:30:18;;;;;;;5.57;3.50;;;14.20;99.90;;;;;;12367838;28;20058;-83
2022/08/07 02:36:20;;;;;;;6.55;3.40;;;14.10;99.90;;;;;;12375194;28;20096;-83
2022/08/07 02:42:33;;;;;;;5.25;3.33;;;14.00;99.90;;;;;;12367879;28;20387;-83
2022/08/07 02:48:37;;;;;;;4.38;2.95;;;14.00;99.90;;;;;;12369487;28;20481;-83
2022/08/07 02:54:41;;;;;;;5.63;3.40;;;13.90;99.90;;;;;;12385263;28;20047;-84
2022/08/07 03:00:44;;;;;;;5.22;3.00;;;13.70;99.90;;;;;;12376215;28;20077;-83
2022/08/07 03:06:50;;;;;;;6.72;3.13;;;13.70;99.90;;;;;;12390348;28;20050;-82
2022/08/07 03:12:53;;;;;;;5.55;2.92;;;13.60;99.90;;;;;;12391671;28;20078;-83
2022/08/07 03:18:58;;;;;;;5.78;3.25;;;13.60;99.90;;;;;;12381581;28;20057;-82
2022/08/07 03:25:00;;;;;;;5.20;3.20;;;13.60;99.90;;;;;;12361647;28;20203;-83
2022/08/07 03:31:19;;;;;;;6.25;3.30;;;13.60;99.90;;;;;;12377696;28;20038;-83
2022/08/07 03:37:29;;;;;;;4.80;3.38;;;13.50;99.90;;;;;;12370564;28;20192;-83
2022/08/07 03:43:39;;;;;;;6.30;3.42;;;13.40;99.90;;;;;;12371548;28;20192;-83
2022/08/07 03:49:57;;;;;;;9.85;3.38;;;13.30;99.90;;;;;;12367543;28;20414;-83
2022/08/07 03:56:00;;;;;;;7.93;3.38;;;13.30;99.90;;;;;;12463271;23;20058;-38
2022/08/07 04:02:06;;;;;;;6.57;2.90;;;13.30;99.90;;;;;;12420633;28;20085;-38
2022/08/07 04:08:11;;;;;;;6.35;3.80;;;13.20;99.90;;;;;;12426204;28;20452;-39
2022/08/07 04:14:28;;;;;;;5.22;2.92;;;13.20;99.90;;;;;;12396981;28;20058;-34
2022/08/07 04:20:39;;;;;;;4.20;3.03;;;13.10;99.90;;;;;;12375654;28;20054;-34
2022/08/07 04:26:56;;;;;;;5.57;3.22;;;13.10;99.90;;;;;;12423710;28;20046;-38
2022/08/07 04:33:17;;;;;;;5.32;3.17;;;13.10;99.90;;;;;;12422153;28;20131;-39
2022/08/07 04:39:19;;;;;;;7.50;3.50;;;13.10;99.90;;;;;;12396219;28;20463;-39
2022/08/07 04:45:38;;;;;;;8.57;3.17;;;13.00;99.90;;;;;;12423835;28;20050;-37
2022/08/07 04:52:41;;;;;;;6.00;3.85;;;13.10;99.90;;;;;;12420471;28;20049;-34
2022/08/07 04:59:07;;;;;;;7.15;4.10;;;13.00;99.90;;;;;;12419823;28;20141;-34
2022/08/07 05:05:28;;;;;;;5.68;3.75;;;13.10;99.90;;;;;;12439079;28;20064;-35
2022/08/07 05:11:52;;;;;;;5.65;3.90;;;13.20;99.90;;;;;;12431286;28;20050;-38
2022/08/07 05:18:06;;;;;;;5.93;3.70;;;13.30;99.90;;;;;;12437814;28;20065;-34
2022/08/07 05:24:15;;;;;;;7.15;3.83;;;13.40;99.90;;;;;;12434415;28;20516;-39
2022/08/07 05:30:19;;;;;;;6.00;3.97;;;13.50;99.90;;;;;;12435223;28;20390;-34
2022/08/07 05:36:32;;;;;;;6.50;3.80;;;13.50;99.90;;;;;;12433989;28;20466;-40
2022/08/07 05:42:37;;;;;;;6.07;3.88;;;13.60;99.90;;;;;;12433613;28;20409;-34
2022/08/07 05:48:40;;;;;;;7.38;4.05;;;13.60;99.90;;;;;;12431244;28;20053;-34
2022/08/07 05:55:01;;;;;;;6.03;3.88;;;13.70;99.90;;;;;;12425691;28;20437;-34
2022/08/07 06:01:13;;;;;;;8.02;4.38;;;13.70;99.90;;;;;;12423029;28;20493;-38
2022/08/07 06:07:15;;;;;;;5.35;3.88;;;13.80;99.90;;;;;;12424339;28;20054;-34
2022/08/07 06:13:24;;;;;;;6.55;4.13;;;14.00;99.90;;;;;;12429264;28;20042;-34
2022/08/07 06:19:47;;;;;;;9.10;4.72;;;14.00;99.90;;;;;;12429384;28;20054;-34
2022/08/07 06:26:05;;;;;;;7.68;4.03;;;14.10;99.90;;;;;;12433211;28;20116;-34
2022/08/07 06:32:07;;;;;;;5.65;3.72;;;14.10;99.90;;;;;;12437871;28;20490;-40
2022/08/07 06:38:14;;;;;;;7.45;4.28;;;14.10;99.90;;;;;;12432969;28;20088;-39
2022/08/07 06:44:22;;;;;;;5.35;3.40;;;14.30;99.90;;;;;;12434243;28;20046;-39
2022/08/07 06:50:26;;;;;;;7.17;3.73;;;14.40;99.90;;;;;;12435256;28;20099;-35
2022/08/07 06:56:38;;;;;;;6.32;3.40;;;14.40;99.90;;;;;;12415690;28;20525;-39
2022/08/07 07:02:51;;;;;;;6.53;3.70;;;14.50;99.90;;;;;;12428455;28;20103;-35
2022/08/07 07:09:21;;;;;;;5.90;3.70;;;14.60;99.90;;;;;;12426387;28;20058;-35
2022/08/07 07:15:29;;;;;;;8.45;3.85;;;14.80;99.90;;;;;;12421072;28;20621;-35
2022/08/07 07:21:39;;;;;;;8.15;3.30;;;15.00;99.90;;;;;;12427800;28;20058;-35
2022/08/07 07:28:11;;;;;;;6.17;3.50;;;15.10;99.90;;;;;;12429626;28;20425;-39
2022/08/07 07:34:37;;;;;;;7.03;3.55;;;15.30;99.90;;;;;;12433356;28;20046;-35
2022/08/07 07:40:41;;;;;;;5.82;3.38;;;15.50;99.90;;;;;;12432793;28;20060;-39
2022/08/07 07:46:47;;;;;;;7.43;3.53;;;15.80;99.90;;;;;;12430305;28;20421;-35
2022/08/07 07:53:01;;;;;;;6.22;3.08;;;15.90;99.90;;;;;;12425876;28;20053;-40
2022/08/07 07:59:05;;;;;;;8.00;3.07;;;16.10;99.90;;;;;;12433501;28;20165;-39
2022/08/07 08:05:08;;;;;;;7.10;3.40;;;16.30;99.90;;;;;;12418943;28;20061;-35
2022/08/07 08:11:15;;;;;;;3.92;2.70;;;16.40;99.90;;;;;;12429976;28;20061;-39
2022/08/07 08:17:40;;;;;;;5.82;3.28;;;16.60;99.90;;;;;;12415248;28;20042;-35
2022/08/07 08:30:44;;;;;;;4.68;1.95;;;16.90;99.90;;;;;;12437831;28;20049;-39
2022/08/07 08:36:57;;;;;;;3.05;1.77;;;17.20;99.90;;;;;;12436556;28;20046;-39
2022/08/07 08:43:13;;;;;;;5.70;1.33;;;17.50;99.90;;;;;;12435802;28;20091;-35
2022/08/07 08:49:26;;;;;;;1.52;0.75;;;17.60;99.90;;;;;;12430080;28;20128;-39
2022/08/07 08:56:01;;;;;;;1.40;0.47;;;17.90;99.90;;;;;;12421888;28;20057;-35
2022/08/07 09:02:14;;;;;;;3.45;0.68;;;18.10;99.90;;;;;;12434268;28;20119;-35
2022/08/07 09:09:07;;;;;;;1.03;0.60;;;18.50;99.90;;;;;;12431097;28;20498;-34
2022/08/07 09:15:38;;;;;;;2.50;0.63;;;18.60;99.90;;;;;;12314714;28;20409;-34
2022/08/07 09:22:51;;;;;;;1.60;0.63;;;19.10;99.90;;;;;;12430012;28;20046;-35
2022/08/07 09:29:28;;;;;;;1.08;0.70;;;19.10;99.90;;;;;;12383110;28;20050;-38
2022/08/07 09:36:19;;;;;;;3.58;0.90;;;19.20;99.90;;;;;;12430321;28;20049;-39
2022/08/07 09:43:06;;;;;;;2.50;0.98;;;19.20;99.90;;;;;;12431412;28;20073;-35
2022/08/07 09:49:21;;;;;;;2.05;0.85;;;19.40;99.90;;;;;;12437528;28;20507;-35
2022/08/07 09:55:51;;;;;;;1.83;0.90;;;19.60;99.90;;;;;;12428286;28;20041;-35
2022/08/07 10:02:44;;;;;;;2.30;1.15;;;19.90;99.90;;;;;;12432593;28;20490;-39
2022/08/07 10:09:11;;;;;;;2.50;1.02;;;20.10;99.90;;;;;;12421446;28;20050;-35
2022/08/07 10:15:30;;;;;;;3.03;1.15;;;19.80;99.90;;;;;;12422826;28;20390;-35
2022/08/07 10:22:01;;;;;;;1.77;0.90;;;19.40;99.90;;;;;;12421962;28;20046;-35
2022/08/07 10:28:36;;;;;;;2.55;0.70;;;19.70;99.90;;;;;;12425882;28;20058;-35
2022/08/07 10:34:47;;;;;;;1.52;1.00;;;19.60;99.90;;;;;;12424661;28;20046;-39
2022/08/07 10:41:18;;;;;;;1.90;0.90;;;19.80;99.90;;;;;;12430888;28;20093;-35
2022/08/07 10:48:13;;;;;;;2.80;0.73;;;20.40;99.90;;;;;;12429384;28;20045;-35
2022/08/07 10:54:38;;;;;;;2.05;0.90;;;20.30;99.90;;;;;;12385087;28;20593;-40
2022/08/07 11:00:50;;;;;;;1.90;0.65;;;20.00;99.90;;;;;;12430077;28;20093;-39
2022/08/07 11:07:16;;;;;;;1.92;0.70;;;20.40;99.90;;;;;;12426414;28;20129;-35
2022/08/07 11:13:50;;;;;;;2.03;0.75;;;21.00;99.90;;;;;;12426407;28;20038;-41
2022/08/07 11:20:21;;;;;;;2.97;0.70;;;21.50;99.90;;;;;;12425078;28;20109;-40
2022/08/07 11:27:00;;;;;;;3.08;0.73;;;21.90;99.90;;;;;;12429180;28;20405;-35
2022/08/07 11:33:41;;;;;;;2.90;0.80;;;22.10;99.90;;;;;;12427559;28;20100;-38
2022/08/07 11:40:19;;;;;;;1.73;0.73;;;22.30;99.90;;;;;;12430810;28;20401;-35
2022/08/07 11:46:59;;;;;;;2.03;0.70;;;22.30;99.90;;;;;;12418891;28;20058;-41
2022/08/07 11:53:35;;;;;;;1.77;0.95;;;22.80;99.90;;;;;;12424477;28;20052;-35
2022/08/07 11:59:37;;;;;;;1.17;0.57;;;23.10;99.90;;;;;;12431023;28;20563;-40
2022/08/07 12:06:08;;;;;;;1.60;0.73;;;23.30;99.90;;;;;;12437484;28;20509;-39
2022/08/07 12:12:53;;;;;;;2.35;0.95;;;23.30;99.90;;;;;;12439184;28;20401;-35
2022/08/07 12:19:06;;;;;;;3.10;0.80;;;23.30;99.90;;;;;;12440083;28;20069;-35
2022/08/07 12:32:23;;;;;;;2.88;1.00;;;23.10;99.90;;;;;;12437679;28;20394;-40
2022/08/07 12:38:27;;;;;;;1.35;0.65;;;23.50;99.90;;;;;;12428241;28;20554;-39
2022/08/07 12:44:47;;;;;;;1.83;0.63;;;23.60;99.90;;;;;;12420121;28;20058;-35
2022/08/07 12:51:12;;;;;;;0.70;0.57;;;23.80;99.90;;;;;;12439006;28;20505;-40
2022/08/07 12:57:22;;;;;;;1.08;0.55;;;24.10;99.90;;;;;;12437930;28;20050;-35
2022/08/07 13:04:02;;;;;;;2.30;0.70;;;24.10;99.90;;;;;;12434699;28;20057;-40
2022/08/07 13:10:24;;;;;;;2.42;0.98;;;24.20;99.90;;;;;;12423712;28;20065;-35
2022/08/07 13:17:04;;;;;;;2.20;0.60;;;24.00;99.90;;;;;;12399549;28;20042;-35
2022/08/07 13:23:38;;;;;;;1.98;0.68;;;24.10;99.90;;;;;;12432915;28;20074;-40
2022/08/07 13:30:13;;;;;;;1.23;0.60;;;24.10;99.90;;;;;;12440058;28;20400;-39
2022/08/07 13:36:43;;;;;;;1.58;0.88;;;24.30;99.90;;;;;;12426055;28;20061;-35
2022/08/07 13:42:50;;;;;;;1.40;0.85;;;24.00;99.90;;;;;;12431526;28;20045;-39
2022/08/07 13:48:52;;;;;;;1.75;0.60;;;24.60;99.90;;;;;;12431100;28;20088;-35
2022/08/07 13:55:07;;;;;;;2.80;0.90;;;24.90;99.90;;;;;;12431251;28;20053;-39
2022/08/07 14:01:16;;;;;;;2.35;0.60;;;24.90;99.90;;;;;;12431024;28;20046;-35
2022/08/07 14:07:27;;;;;;;1.13;0.70;;;24.30;99.90;;;;;;12407285;28;20061;-35
2022/08/07 14:13:34;;;;;;;1.50;0.70;;;24.50;99.90;;;;;;12411395;28;20502;-35
2022/08/07 14:19:49;;;;;;;1.27;0.80;;;24.20;99.90;;;;;;12421769;28;20050;-35
2022/08/07 14:26:16;;;;;;;4.18;0.80;;;24.60;99.90;;;;;;12424166;28;20061;-35
2022/08/07 14:32:44;;;;;;;1.92;0.80;;;24.70;99.90;;;;;;12423872;28;20049;-35
2022/08/07 14:38:48;;;;;;;1.25;0.80;;;24.60;99.90;;;;;;12427711;28;20046;-40
2022/08/07 14:44:58;;;;;;;1.08;0.60;;;24.60;99.90;;;;;;12425414;28;20062;-35
2022/08/07 14:51:26;;;;;;;2.22;0.90;;;24.60;99.90;;;;;;12427342;28;20058;-35
2022/08/07 14:57:50;;;;;;;3.42;0.95;;;24.50;99.90;;;;;;12426528;28;20663;-35
2022/08/07 15:04:05;;;;;;;2.70;0.75;;;24.50;99.90;;;;;;12433228;28;20049;-40
2022/08/07 15:10:15;;;;;;;1.38;0.80;;;24.50;99.90;;;;;;12422648;28;20050;-36
2022/08/07 15:16:26;;;;;;;2.28;0.98;;;24.20;99.90;;;;;;12423214;28;20061;-40
2022/08/07 15:22:51;;;;;;;1.85;0.90;;;24.00;99.90;;;;;;12431088;28;20050;-35
2022/08/07 15:28:57;;;;;;;1.65;0.70;;;23.80;99.90;;;;;;12430610;28;20084;-39
2022/08/07 15:35:21;;;;;;;1.55;0.80;;;24.00;99.90;;;;;;12426774;28;20057;-39
2022/08/07 15:41:58;;;;;;;3.05;0.80;;;23.60;99.90;;;;;;12432752;28;20041;-38
2022/08/07 15:48:32;;;;;;;2.22;1.20;;;23.80;99.90;;;;;;12422575;28;20469;-35
2022/08/07 15:54:37;;;;;;;2.15;1.20;;;23.90;99.90;;;;;;12429272;28;20042;-35
2022/08/07 16:00:44;;;;;;;3.88;1.20;;;23.50;99.90;;;;;;12417704;28;20057;-35
2022/08/07 16:06:52;;;;;;;1.85;1.10;;;23.60;99.90;;;;;;12430451;28;20497;-39
2022/08/07 16:13:17;;;;;;;1.58;0.85;;;23.80;99.90;;;;;;12424412;28;20057;-38
2022/08/07 16:19:59;;;;;;;2.13;1.15;;;24.10;99.90;;;;;;12416110;28;20049;-39
2022/08/07 16:26:14;;;;;;;1.67;1.05;;;24.20;99.90;;;;;;12417318;28;20125;-35
2022/08/07 16:32:46;;;;;;;2.85;1.10;;;24.20;99.90;;;;;;12418164;28;20053;-35
2022/08/07 16:39:17;;;;;;;2.13;1.30;;;23.80;99.90;;;;;;12409046;28;20089;-35
2022/08/07 16:45:44;;;;;;;3.38;1.20;;;24.10;99.90;;;;;;12408761;28;20038;-39
2022/08/07 16:52:27;;;;;;;2.15;1.20;;;24.20;99.90;;;;;;12434416;28;20061;-35
2022/08/07 16:59:18;;;;;;;2.13;1.08;;;24.20;99.90;;;;;;12417104;28;20046;-40
2022/08/07 17:05:27;;;;;;;2.92;1.10;;;24.40;99.90;;;;;;12427292;28;20062;-39
2022/08/07 17:11:59;;;;;;;2.80;1.40;;;24.30;99.90;;;;;;12433358;28;20058;-39
2022/08/07 17:18:30;;;;;;;1.40;1.00;;;24.50;99.90;;;;;;12417524;28;20081;-35
2022/08/07 17:24:38;;;;;;;2.28;1.38;;;24.30;99.90;;;;;;12420982;28;20150;-39
2022/08/07 17:30:57;;;;;;;2.40;1.27;;;24.30;99.90;;;;;;12420294;28;20165;-39
2022/08/07 17:37:26;;;;;;;2.60;1.30;;;24.10;99.90;;;;;;12422113;28;20204;-38
2022/08/07 17:44:09;;;;;;;2.97;1.00;;;24.20;99.90;;;;;;12418069;28;20042;-35
2022/08/07 17:50:43;;;;;;;2.70;1.40;;;24.20;99.90;;;;;;12421469;28;20068;-35
2022/08/07 17:57:39;;;;;;;2.60;1.27;;;24.30;99.90;;;;;;12375701;28;1377253;-35
2022/08/07 18:04:18;;;;;;;2.95;1.40;;;24.10;99.90;;;;;;12417370;28;20471;-39
2022/08/07 18:10:52;;;;;;;3.00;1.45;;;23.70;99.90;;;;;;12427070;28;20045;-39
2022/08/07 18:17:40;;;;;;;;;;;23.10;99.90;;;;;;12415680;28;20050;-35
2022/08/07 18:24:06;;;;;;;3.15;1.60;;;22.60;99.90;;;;;;12397630;28;19925;-35
2022/08/07 18:30:13;;;;;;;2.88;1.60;;;22.20;99.90;;;;;;12421634;28;20205;-38
2022/08/07 18:36:57;;;;;;;3.65;1.52;;;21.90;99.90;;;;;;12418596;28;20078;-40
2022/08/07 18:43:38;;;;;;;5.50;2.00;;;21.70;99.90;;;;;;12419578;28;20049;-35
2022/08/07 18:49:59;;;;;;;2.17;1.00;;;21.60;99.90;;;;;;12416627;28;20046;-40
2022/08/07 18:56:35;;;;;;;3.63;1.70;;;21.50;99.90;;;;;;12416340;28;20092;-35
2022/08/07 19:02:43;;;;;;;3.33;1.55;;;21.40;99.90;;;;;;12431293;28;20049;-35
2022/08/07 19:08:55;;;;;;;5.93;1.70;;;21.30;99.90;;;;;;12435984;28;20500;-38
2022/08/07 19:15:24;;;;;;;2.72;1.30;;;21.10;99.90;;;;;;12428399;28;20038;-39
2022/08/07 19:21:55;;;;;;;3.67;1.40;;;20.90;99.90;;;;;;12427580;28;20049;-35
2022/08/07 19:28:11;;;;;;;3.05;1.50;;;20.70;99.90;;;;;;12432322;28;20050;-35
2022/08/07 19:34:35;;;;;;;2.40;1.40;;;20.60;99.90;;;;;;12424896;28;20038;-39
2022/08/07 19:40:41;;;;;;;4.63;1.30;;;20.50;99.90;;;;;;12431210;28;20110;-39
2022/08/07 19:47:00;;;;;;;2.88;1.58;;;20.40;99.90;;;;;;12427375;28;20547;-35
2022/08/07 19:53:14;;;;;;;3.33;1.33;;;20.20;99.90;;;;;;12412139;28;20057;-38
2022/08/07 19:59:39;;;;;;;2.35;1.52;;;20.10;99.90;;;;;;12424404;28;20057;-39
2022/08/07 20:05:45;;;;;;;3.42;1.58;;;19.90;99.90;;;;;;12404743;28;20050;-38
2022/08/07 20:12:02;;;;;;;4.43;1.30;;;19.70;99.90;;;;;;12424310;28;20069;-39
2022/08/07 20:18:25;;;;;;;3.97;1.50;;;19.70;99.90;;;;;;12428976;28;20038;-39
2022/08/07 20:24:35;;;;;;;3.45;1.40;;;19.50;99.90;;;;;;12428106;28;20513;-38
2022/08/07 20:30:42;;;;;;;3.28;1.60;;;19.40;99.90;;;;;;12438292;28;20061;-35
2022/08/07 20:36:49;;;;;;;3.35;1.30;;;19.20;99.90;;;;;;12435283;28;20046;-39
2022/08/07 20:42:57;;;;;;;3.63;1.58;;;19.00;99.90;;;;;;12432702;28;20197;-38
2022/08/07 20:49:02;;;;;;;3.13;1.73;;;18.80;99.90;;;;;;12436402;28;20050;-34
2022/08/07 20:55:24;;;;;;;3.78;1.67;;;18.80;99.90;;;;;;12428836;28;20049;-34
2022/08/07 21:01:28;;;;;;;3.13;1.70;;;18.70;99.90;;;;;;12432078;28;20161;-38
2022/08/07 21:07:50;;;;;;;2.03;1.30;;;18.60;99.90;;;;;;12438186;28;20593;-38
2022/08/07 21:13:55;;;;;;;3.50;1.42;;;18.50;99.90;;;;;;12435444;28;20485;-39
2022/08/07 21:20:20;;;;;;;4.00;1.42;;;18.50;99.90;;;;;;12430560;28;20051;-35
2022/08/07 21:26:49;;;;;;;;;;;18.50;99.90;;;;;;12434995;28;20077;-38
2022/08/07 21:33:21;;;;;;;2.45;1.50;;;18.60;99.90;;;;;;12436047;28;19932;-38
2022/08/07 21:39:46;;;;;;;3.53;1.70;;;18.30;99.90;;;;;;12436893;28;20115;-38
2022/08/07 21:46:02;;;;;;;6.53;1.98;;;18.10;99.90;;;;;;12429771;28;20140;-34
2022/08/07 21:53:01;;;;;;;5.30;1.98;;;18.00;99.90;;;;;;12432161;28;20052;-38
2022/08/07 21:59:20;;;;;;;3.97;1.80;;;17.90;99.90;;;;;;12387632;28;20050;-35
2022/08/07 22:05:25;;;;;;;4.37;2.13;;;17.80;99.90;;;;;;12431783;28;20050;-34
2022/08/07 22:11:47;;;;;;;2.90;1.40;;;17.80;99.90;;;;;;12435979;28;20141;-38
2022/08/07 22:18:34;;;;;;;2.63;1.58;;;17.70;99.90;;;;;;12432014;28;20141;-34
2022/08/07 22:24:54;;;;;;;2.53;1.58;;;17.70;99.90;;;;;;12429412;28;20546;-34
2022/08/07 22:31:17;;;;;;;4.10;2.15;;;17.60;99.90;;;;;;12431122;28;20054;-34
2022/08/07 22:37:58;;;;;;;4.55;1.98;;;17.50;99.90;;;;;;12425485;28;20057;-34
2022/08/07 22:44:12;;;;;;;2.70;1.90;;;17.50;99.90;;;;;;12424738;28;20081;-34
2022/08/07 22:50:50;;;;;;;3.77;2.03;;;17.50;99.90;;;;;;12432557;28;20053;-34
2022/08/07 22:57:14;;;;;;;3.13;1.83;;;17.40;99.90;;;;;;12433800;28;20949;-35
2022/08/07 23:03:20;;;;;;;;;;;17.40;99.90;;;;;;12427636;28;20496;-34
2022/08/07 23:09:47;;;;;;;3.35;2.00;;;17.30;99.90;;;;;;12427711;28;19929;-34
2022/08/07 23:16:20;;;;;;;3.63;2.03;;;17.30;99.90;;;;;;12425364;28;20413;-38
2022/08/07 23:22:58;;;;;;;3.42;1.90;;;17.10;99.90;;;;;;12408970;28;20046;-38
2022/08/07 23:29:06;;;;;;;3.05;1.70;;;17.00;99.90;;;;;;12425240;28;20042;-38
2022/08/07 23:35:54;;;;;;;2.75;1.92;;;17.00;99.90;;;;;;12420889;28;20057;-34
2022/08/07 23:42:24;;;;;;;3.22;2.30;;;16.90;99.90;;;;;;12425741;28;20050;-34
2022/08/07 23:48:52;;;;;;;5.93;2.10;;;16.90;99.90;;;;;;12417637;28;20144;-37
2022/08/07 23:55:51;;;;;;;3.72;2.40;;;16.70;99.90;;;;;;12408047;28;20132;-38
